createdAt,value
2022-09-25T00:01:11.693Z,99.46
2022-09-25T00:03:39.596Z,99.36
2022-09-25T00:06:08.961Z,99.79
2022-09-25T00:08:36.864Z,99.61
2022-09-25T00:11:08.127Z,99.49
2022-09-25T00:13:35.521Z,99.53
2022-09-25T00:16:04.564Z,99.41
2022-09-25T00:18:51.105Z,99.56
2022-09-25T00:21:18.558Z,99.73
2022-09-25T00:23:46.378Z,99.36
2022-09-25T00:26:15.268Z,99.60
2022-09-25T00:28:43.865Z,99.39
2022-09-25T00:31:15.090Z,99.28
2022-09-25T00:33:43.842Z,99.44
2022-09-25T00:36:11.907Z,99.47
2022-09-25T00:38:39.545Z,99.57
2022-09-25T00:41:08.174Z,99.33
2022-09-25T00:43:39.321Z,99.12
2022-09-25T00:46:10.691Z,99.16
2022-09-25T00:48:38.841Z,99.95
2022-09-25T00:51:07.484Z,100.00
2022-09-25T00:53:37.348Z,100.00
2022-09-25T00:56:05.993Z,100.00
2022-09-25T00:58:34.641Z,100.00
2022-09-25T01:01:02.112Z,100.00
2022-09-25T01:03:29.667Z,100.00
2022-09-25T01:06:00.137Z,100.00
2022-09-25T01:08:29.718Z,100.00
2022-09-25T01:10:57.207Z,100.00
2022-09-25T01:13:24.630Z,100.00
2022-09-25T01:15:59.279Z,100.00
2022-09-25T01:18:35.370Z,100.00
2022-09-25T01:21:14.640Z,100.00
2022-09-25T01:23:59.417Z,100.00
2022-09-25T01:26:44.880Z,100.00
2022-09-25T01:29:15.962Z,100.00
2022-09-25T01:31:48.776Z,100.00
2022-09-25T01:34:19.958Z,100.00
2022-09-25T01:36:49.970Z,100.00
2022-09-25T01:39:21.758Z,100.00
2022-09-25T01:41:55.718Z,100.00
2022-09-25T01:44:29.065Z,100.00
2022-09-25T01:47:03.747Z,100.00
2022-09-25T01:49:33.373Z,99.97
2022-09-25T01:52:02.669Z,99.90
2022-09-25T01:54:32.085Z,100.00
2022-09-25T01:57:02.553Z,99.98
2022-09-25T01:59:35.435Z,100.00
2022-09-25T02:02:04.745Z,100.00
2022-09-25T02:04:35.467Z,100.00
2022-09-25T02:07:36.316Z,100.00
2022-09-25T02:10:09.033Z,100.00
2022-09-25T02:12:43.965Z,100.00
2022-09-25T02:15:14.690Z,100.00
2022-09-25T02:18:04.026Z,100.00
2022-09-25T02:20:34.071Z,100.00
2022-09-25T02:23:07.504Z,100.00
2022-09-25T02:25:38.409Z,100.00
2022-09-25T02:28:05.812Z,100.00
2022-09-25T02:30:34.626Z,100.00
2022-09-25T02:33:02.045Z,100.00
2022-09-25T02:35:29.445Z,100.00
2022-09-25T02:37:57.588Z,100.00
2022-09-25T02:40:45.138Z,100.00
2022-09-25T02:43:23.444Z,100.00
2022-09-25T02:46:00.623Z,100.00
2022-09-25T02:48:35.473Z,100.00
2022-09-25T02:51:09.841Z,100.00
2022-09-25T02:53:39.779Z,100.00
2022-09-25T02:56:12.502Z,100.00
2022-09-25T02:58:42.710Z,99.63
2022-09-25T03:01:13.879Z,99.60
2022-09-25T03:03:42.370Z,99.77
2022-09-25T03:06:11.085Z,99.25
2022-09-25T03:08:41.326Z,99.11
2022-09-25T03:11:10.092Z,99.39
2022-09-25T03:13:37.875Z,99.36
2022-09-25T03:16:08.082Z,99.25
2022-09-25T03:18:37.865Z,99.26
2022-09-25T03:21:05.690Z,99.12
2022-09-25T03:23:33.305Z,98.99
2022-09-25T03:26:00.802Z,98.90
2022-09-25T03:28:28.452Z,99.04
2022-09-25T03:31:00.589Z,99.15
2022-09-25T03:33:29.346Z,99.12
2022-09-25T03:36:06.690Z,99.47
2022-09-25T03:38:34.182Z,99.22
2022-09-25T03:41:01.861Z,99.06
2022-09-25T03:43:33.409Z,98.93
2022-09-25T03:46:00.852Z,98.95
2022-09-25T03:48:28.279Z,99.05
2022-09-25T03:50:56.142Z,98.58
2022-09-25T03:53:25.236Z,98.28
2022-09-25T03:55:52.586Z,98.37
2022-09-25T03:58:20.394Z,98.11
2022-09-25T04:00:48.049Z,97.99
2022-09-25T04:03:15.849Z,97.76
2022-09-25T04:05:44.506Z,97.87
2022-09-25T04:08:11.854Z,97.83
2022-09-25T04:10:40.576Z,98.15
2022-09-25T04:13:09.051Z,98.03
2022-09-25T04:15:36.377Z,97.89
2022-09-25T04:18:06.232Z,97.73
2022-09-25T04:20:33.792Z,97.67
2022-09-25T04:23:01.192Z,97.45
2022-09-25T04:25:28.545Z,97.65
2022-09-25T04:27:58.245Z,97.13
2022-09-25T04:30:26.649Z,96.88
2022-09-25T04:33:11.781Z,96.95
2022-09-25T04:35:39.179Z,96.82
2022-09-25T04:38:06.524Z,96.91
2022-09-25T04:40:34.317Z,96.93
2022-09-25T04:43:04.670Z,97.27
2022-09-25T04:45:34.825Z,97.09
2022-09-25T04:48:03.109Z,97.24
2022-09-25T04:50:31.155Z,96.71
2022-09-25T04:53:02.870Z,96.83
2022-09-25T04:55:30.246Z,96.87
2022-09-25T04:57:59.879Z,97.17
2022-09-25T05:00:30.350Z,97.03
2022-09-25T05:02:58.187Z,96.66
2022-09-25T05:05:30.426Z,97.18
2022-09-25T05:07:59.452Z,97.29
2022-09-25T05:10:28.428Z,97.36
2022-09-25T05:12:56.381Z,97.66
2022-09-25T05:15:23.768Z,97.52
2022-09-25T05:18:00.338Z,97.44
2022-09-25T05:20:27.745Z,97.50
2022-09-25T05:22:56.213Z,97.40
2022-09-25T05:25:27.121Z,97.41
2022-09-25T05:27:55.727Z,97.11
2022-09-25T05:30:23.202Z,97.50
2022-09-25T05:32:52.362Z,97.57
2022-09-25T05:35:21.160Z,96.98
2022-09-25T05:37:48.786Z,96.52
2022-09-25T05:40:18.108Z,96.76
2022-09-25T05:42:45.830Z,96.37
2022-09-25T05:45:13.288Z,96.18
2022-09-25T05:47:40.717Z,96.26
2022-09-25T05:50:11.441Z,95.96
2022-09-25T05:52:38.950Z,95.79
2022-09-25T05:55:08.031Z,95.76
2022-09-25T05:57:36.442Z,95.62
2022-09-25T06:00:05.681Z,95.92
2022-09-25T06:02:39.256Z,95.47
2022-09-25T06:05:07.112Z,95.17
2022-09-25T06:07:35.850Z,95.25
2022-09-25T06:10:03.367Z,94.59
2022-09-25T06:12:30.913Z,94.09
2022-09-25T06:14:58.374Z,94.58
2022-09-25T06:17:25.768Z,94.58
2022-09-25T06:19:53.403Z,94.74
2022-09-25T06:22:20.757Z,94.00
2022-09-25T06:24:49.560Z,94.54
2022-09-25T06:27:16.978Z,93.30
2022-09-25T06:29:44.522Z,93.08
2022-09-25T06:32:11.899Z,93.19
2022-09-25T06:34:39.265Z,93.74
2022-09-25T06:37:06.585Z,93.86
2022-09-25T06:39:34.031Z,94.29
2022-09-25T06:42:03.009Z,95.06
2022-09-25T06:44:31.786Z,94.91
2022-09-25T06:46:59.694Z,95.51
2022-09-25T06:49:27.166Z,95.89
2022-09-25T06:51:54.713Z,96.33
2022-09-25T06:54:22.142Z,95.77
2022-09-25T06:56:50.272Z,95.61
2022-09-25T06:59:19.131Z,95.84
2022-09-25T07:01:46.576Z,95.46
2022-09-25T07:04:13.443Z,95.44
2022-09-25T07:06:40.874Z,95.20
2022-09-25T07:09:08.379Z,94.26
2022-09-25T07:11:38.088Z,94.54
2022-09-25T07:14:05.480Z,93.69
2022-09-25T07:16:34.597Z,92.79
2022-09-25T07:19:03.929Z,92.14
2022-09-25T07:21:32.129Z,92.09
2022-09-25T07:23:59.733Z,91.55
2022-09-25T07:26:29.233Z,91.24
2022-09-25T07:28:58.193Z,90.95
2022-09-25T07:31:27.528Z,90.22
2022-09-25T07:33:56.462Z,90.27
2022-09-25T07:39:06.958Z,89.73
2022-09-25T07:41:34.537Z,89.33
2022-09-25T07:44:18.166Z,88.94
2022-09-25T07:46:49.659Z,89.05
2022-09-25T07:49:18.622Z,87.44
2022-09-25T07:51:46.023Z,83.42
2022-09-25T07:54:13.552Z,80.43
2022-09-25T07:56:41.073Z,79.10
2022-09-25T07:59:08.630Z,79.28
2022-09-25T08:01:39.668Z,80.81
2022-09-25T08:04:10.199Z,80.27
2022-09-25T08:06:39.173Z,80.49
2022-09-25T08:09:10.361Z,81.20
2022-09-25T08:11:38.274Z,82.45
2022-09-25T08:14:05.723Z,82.34
2022-09-25T08:16:33.094Z,82.34
2022-09-25T08:19:00.482Z,81.82
2022-09-25T08:21:29.975Z,78.78
2022-09-25T08:23:58.656Z,80.51
2022-09-25T08:26:28.068Z,79.23
2022-09-25T08:28:56.729Z,80.02
2022-09-25T08:31:26.693Z,80.06
2022-09-25T08:33:55.401Z,79.92
2022-09-25T08:36:23.605Z,79.43
2022-09-25T08:38:51.007Z,79.34
2022-09-25T08:41:23.729Z,78.61
2022-09-25T08:43:57.880Z,79.98
2022-09-25T08:46:47.393Z,80.56
2022-09-25T08:49:15.477Z,79.80
2022-09-25T08:51:45.277Z,80.08
2022-09-25T08:54:17.570Z,79.03
2022-09-25T08:56:47.574Z,79.31
2022-09-25T08:59:23.619Z,78.72
2022-09-25T09:01:53.282Z,76.93
2022-09-25T09:04:26.648Z,76.96
2022-09-25T09:07:24.513Z,77.62
2022-09-25T09:09:46.867Z,78.13
2022-09-25T09:12:18.079Z,78.87
2022-09-25T09:14:46.650Z,79.17
2022-09-25T09:17:18.147Z,78.25
2022-09-25T09:19:48.238Z,76.39
2022-09-25T09:22:17.966Z,73.78
2022-09-25T09:24:54.870Z,74.58
2022-09-25T09:27:33.710Z,74.27
2022-09-25T09:30:11.355Z,76.12
2022-09-25T09:32:50.305Z,76.85
2022-09-25T09:35:31.235Z,76.04
2022-09-25T09:38:08.043Z,79.04
2022-09-25T09:40:57.102Z,77.55
2022-09-25T09:43:44.783Z,75.44
2022-09-25T09:46:18.478Z,74.07
2022-09-25T09:48:54.329Z,72.66
2022-09-25T09:51:25.245Z,70.83
2022-09-25T09:53:55.191Z,68.37
2022-09-25T09:56:25.427Z,65.90
2022-09-25T09:58:56.586Z,66.38
2022-09-25T10:01:40.992Z,67.25
2022-09-25T10:04:11.268Z,68.96
2022-09-25T10:06:40.931Z,69.37
2022-09-25T10:09:11.246Z,68.16
2022-09-25T10:11:40.641Z,69.93
2022-09-25T10:14:15.759Z,69.93
2022-09-25T10:16:43.215Z,69.87
2022-09-25T10:19:14.594Z,70.12
2022-09-25T10:21:44.453Z,71.04
2022-09-25T10:24:46.898Z,69.60
2022-09-25T10:27:22.809Z,67.49
2022-09-25T10:30:04.703Z,66.32
2022-09-25T10:32:34.955Z,66.45
2022-09-25T10:35:02.567Z,66.45
2022-09-25T10:37:34.766Z,66.42
2022-09-25T10:40:04.911Z,63.59
2022-09-25T10:42:38.899Z,63.73
2022-09-25T10:45:30.039Z,65.44
2022-09-25T10:48:15.106Z,64.41
2022-09-25T10:50:43.014Z,61.11
2022-09-25T10:53:28.140Z,59.58
2022-09-25T10:56:01.771Z,58.77
2022-09-25T10:58:34.740Z,59.48
2022-09-25T11:01:04.500Z,61.61
2022-09-25T11:03:34.187Z,64.65
2022-09-25T11:06:03.842Z,66.16
2022-09-25T11:08:34.320Z,68.55
2022-09-25T11:11:03.181Z,71.15
2022-09-25T11:13:36.920Z,70.88
2022-09-25T11:16:10.179Z,71.35
2022-09-25T11:18:40.889Z,72.71
2022-09-25T11:21:20.590Z,73.19
2022-09-25T11:24:05.070Z,72.39
2022-09-25T11:26:35.452Z,70.64
2022-09-25T11:29:11.147Z,70.12
2022-09-25T11:31:44.110Z,69.57
2022-09-25T11:34:20.285Z,68.00
2022-09-25T11:36:50.146Z,65.65
2022-09-25T11:39:40.954Z,64.41
2022-09-25T11:42:13.541Z,63.50
2022-09-25T11:44:45.006Z,64.29
2022-09-25T11:47:17.319Z,64.92
2022-09-25T11:49:49.718Z,64.42
2022-09-25T11:52:32.604Z,64.06
2022-09-25T11:55:14.727Z,65.38
2022-09-25T11:57:52.688Z,64.47
2022-09-25T12:00:23.759Z,64.67
2022-09-25T12:03:10.213Z,66.08
2022-09-25T12:05:51.710Z,63.93
2022-09-25T12:08:29.467Z,67.68
2022-09-25T12:11:01.664Z,66.60
2022-09-25T12:13:39.128Z,67.59
2022-09-25T12:16:11.966Z,61.21
2022-09-25T12:18:51.667Z,61.10
2022-09-25T12:21:25.682Z,57.68
2022-09-25T12:23:57.917Z,57.85
2022-09-25T12:26:29.930Z,60.88
2022-09-25T12:29:07.965Z,62.67
2022-09-25T12:31:44.132Z,58.75
2022-09-25T12:34:18.558Z,61.69
2022-09-25T12:36:48.022Z,62.31
2022-09-25T12:39:27.020Z,62.53
2022-09-25T12:41:57.010Z,61.24
2022-09-25T12:44:27.925Z,63.25
2022-09-25T12:46:59.277Z,63.26
2022-09-25T12:49:30.132Z,62.79
2022-09-25T12:52:00.946Z,59.90
2022-09-25T12:54:32.782Z,60.36
2022-09-25T12:57:03.370Z,60.58
2022-09-25T12:59:36.024Z,60.04
2022-09-25T13:02:07.030Z,58.86
2022-09-25T13:04:47.386Z,57.99
2022-09-25T13:07:18.153Z,57.63
2022-09-25T13:09:47.340Z,56.56
2022-09-25T13:12:22.468Z,57.18
2022-09-25T13:14:53.179Z,58.76
2022-09-25T13:17:20.805Z,58.15
2022-09-25T13:19:51.271Z,57.02
2022-09-25T13:22:24.155Z,58.93
2022-09-25T13:24:53.563Z,62.74
2022-09-25T13:27:22.737Z,63.93
2022-09-25T13:29:56.885Z,61.36
2022-09-25T13:32:27.342Z,63.97
2022-09-25T13:34:57.870Z,65.30
2022-09-25T13:37:28.600Z,62.66
2022-09-25T13:40:13.880Z,64.61
2022-09-25T13:42:44.119Z,64.16
2022-09-25T13:45:32.170Z,65.19
2022-09-25T13:48:07.875Z,61.03
2022-09-25T13:50:46.900Z,61.27
2022-09-25T13:53:23.642Z,64.49
2022-09-25T13:56:27.557Z,62.29
2022-09-25T13:59:37.945Z,62.15
2022-09-25T14:02:44.430Z,63.47
2022-09-25T14:05:17.046Z,65.34
2022-09-25T14:07:46.877Z,66.03
2022-09-25T14:10:14.529Z,67.61
2022-09-25T14:12:47.938Z,68.12
2022-09-25T14:15:21.767Z,70.28
2022-09-25T14:17:52.276Z,71.33
2022-09-25T14:20:28.363Z,70.79
2022-09-25T14:22:58.957Z,70.14
2022-09-25T14:25:32.824Z,68.32
2022-09-25T14:28:01.086Z,67.85
2022-09-25T14:30:30.154Z,66.87
2022-09-25T14:33:09.548Z,66.53
2022-09-25T14:35:41.378Z,64.81
2022-09-25T14:38:23.518Z,63.07
2022-09-25T14:41:04.164Z,64.93
2022-09-25T14:43:45.311Z,62.54
2022-09-25T14:46:19.775Z,62.77
2022-09-25T14:48:49.883Z,63.76
2022-09-25T14:51:29.778Z,64.04
2022-09-25T14:54:03.169Z,63.47
2022-09-25T14:56:34.213Z,64.68
2022-09-25T14:59:11.094Z,66.41
2022-09-25T15:01:46.191Z,65.63
2022-09-25T15:04:13.661Z,68.21
2022-09-25T15:06:41.177Z,64.88
2022-09-25T15:09:28.969Z,64.69
2022-09-25T15:11:56.614Z,65.59
2022-09-25T15:14:24.026Z,66.26
2022-09-25T15:17:09.273Z,68.52
2022-09-25T15:19:39.953Z,68.15
2022-09-25T15:22:10.333Z,68.42
2022-09-25T15:24:46.882Z,70.34
2022-09-25T15:27:16.936Z,70.91
2022-09-25T15:29:46.633Z,70.45
2022-09-25T15:32:18.268Z,67.41
2022-09-25T15:34:45.958Z,64.81
2022-09-25T15:37:18.719Z,63.92
2022-09-25T15:39:47.562Z,59.74
2022-09-25T15:42:15.476Z,60.73
2022-09-25T15:44:43.053Z,60.20
2022-09-25T15:47:47.937Z,59.04
2022-09-25T15:50:21.736Z,62.14
2022-09-25T15:52:51.063Z,62.38
2022-09-25T15:55:20.450Z,61.47
2022-09-25T15:57:48.008Z,64.38
2022-09-25T16:00:37.504Z,66.31
2022-09-25T16:03:32.819Z,65.92
2022-09-25T16:06:03.069Z,68.60
2022-09-25T16:08:31.951Z,69.51
2022-09-25T16:11:16.679Z,70.26
2022-09-25T16:13:48.422Z,72.36
2022-09-25T16:16:21.985Z,74.76
2022-09-25T16:18:51.084Z,77.79
2022-09-25T16:21:22.395Z,78.55
2022-09-25T16:23:56.518Z,77.36
2022-09-25T16:26:27.438Z,77.33
2022-09-25T16:29:02.834Z,77.67
2022-09-25T16:31:30.634Z,79.34
2022-09-25T16:34:00.394Z,78.31
2022-09-25T16:36:28.967Z,77.92
2022-09-25T16:39:21.736Z,77.75
2022-09-25T16:41:51.051Z,79.14
2022-09-25T16:44:20.854Z,81.45
2022-09-25T16:47:06.043Z,80.51
2022-09-25T16:49:33.994Z,81.04
2022-09-25T16:52:04.974Z,81.75
2022-09-25T16:54:33.777Z,83.05
2022-09-25T16:57:04.041Z,83.55
2022-09-25T16:59:31.491Z,84.94
2022-09-25T17:02:04.736Z,85.60
2022-09-25T17:04:32.333Z,85.58
2022-09-25T17:06:59.807Z,85.60
2022-09-25T17:09:29.084Z,85.63
2022-09-25T17:12:01.198Z,86.13
2022-09-25T17:14:29.886Z,86.83
2022-09-25T17:16:57.857Z,87.87
2022-09-25T17:19:27.838Z,87.79
2022-09-25T17:21:56.030Z,87.76
2022-09-25T17:24:26.648Z,90.67
2022-09-25T17:26:54.425Z,92.09
2022-09-25T17:29:22.071Z,92.21
2022-09-25T17:31:50.989Z,92.45
2022-09-25T17:34:20.943Z,91.88
2022-09-25T17:36:48.421Z,91.90
2022-09-25T17:39:15.841Z,91.72
2022-09-25T17:41:43.307Z,91.00
2022-09-25T17:44:14.011Z,90.75
2022-09-25T17:46:41.441Z,90.53
2022-09-25T17:49:11.209Z,91.68
2022-09-25T17:51:39.396Z,91.00
2022-09-25T17:54:06.908Z,91.51
2022-09-25T17:56:35.233Z,91.22
2022-09-25T17:59:03.560Z,91.49
2022-09-25T18:01:38.934Z,92.16
2022-09-25T18:04:19.876Z,92.89
2022-09-25T18:06:47.825Z,92.72
2022-09-25T18:09:15.264Z,93.42
2022-09-25T18:11:44.155Z,94.37
2022-09-25T18:14:12.409Z,95.27
2022-09-25T18:16:41.589Z,95.07
2022-09-25T18:19:33.587Z,94.67
2022-09-25T18:22:21.301Z,94.55
2022-09-25T18:24:51.025Z,94.56
2022-09-25T18:27:18.479Z,93.95
2022-09-25T18:29:47.183Z,93.60
2022-09-25T18:32:14.668Z,94.12
2022-09-25T18:34:43.782Z,93.66
2022-09-25T18:37:11.628Z,93.84
2022-09-25T18:39:39.253Z,94.59
2022-09-25T18:42:06.950Z,94.66
2022-09-25T18:44:42.331Z,95.55
2022-09-25T18:47:10.864Z,96.76
2022-09-25T18:49:38.395Z,97.72
2022-09-25T18:52:07.828Z,97.74
2022-09-25T18:54:35.402Z,97.01
2022-09-25T18:57:03.239Z,96.57
2022-09-25T18:59:30.847Z,96.44
2022-09-25T19:01:58.745Z,96.44
2022-09-25T19:04:26.898Z,96.13
2022-09-25T19:06:54.433Z,95.85
2022-09-25T19:09:24.304Z,95.41
2022-09-25T19:11:51.909Z,94.82
2022-09-25T19:14:19.870Z,95.10
2022-09-25T19:16:48.219Z,95.43
2022-09-25T19:19:15.794Z,94.73
2022-09-25T19:21:44.649Z,94.10
2022-09-25T19:24:12.768Z,93.89
2022-09-25T19:26:42.660Z,94.74
2022-09-25T19:29:10.335Z,96.22
2022-09-25T19:31:38.255Z,96.33
2022-09-25T19:34:05.859Z,96.87
2022-09-25T19:36:34.786Z,96.42
2022-09-25T19:39:02.947Z,96.93
2022-09-25T19:41:31.888Z,97.56
2022-09-25T19:44:05.765Z,97.61
2022-09-25T19:46:35.836Z,97.14
2022-09-25T19:49:03.262Z,97.09
2022-09-25T19:51:30.770Z,97.09
2022-09-25T19:53:58.340Z,98.16
2022-09-25T19:56:26.425Z,97.84
2022-09-25T19:58:53.882Z,97.77
2022-09-25T20:01:24.255Z,97.60
2022-09-25T20:03:51.834Z,97.10
2022-09-25T20:06:19.574Z,97.90
2022-09-25T20:08:47.189Z,98.10
2022-09-25T20:11:16.821Z,97.74
2022-09-25T20:13:44.559Z,98.14
2022-09-25T20:16:14.047Z,98.54
2022-09-25T20:18:43.922Z,99.31
2022-09-25T20:21:13.795Z,99.22
2022-09-25T20:23:41.290Z,98.50
2022-09-25T20:26:10.574Z,97.93
2022-09-25T20:28:38.633Z,98.44
2022-09-25T20:31:07.384Z,98.45
2022-09-25T20:33:36.178Z,98.56
2022-09-25T20:36:07.297Z,98.34
2022-09-25T20:38:36.822Z,97.81
2022-09-25T20:41:06.332Z,98.07
2022-09-25T20:43:34.682Z,98.01
2022-09-25T20:46:04.293Z,97.92
2022-09-25T20:48:31.946Z,98.07
2022-09-25T20:50:59.422Z,99.03
2022-09-25T20:53:28.245Z,98.67
2022-09-25T20:55:56.804Z,98.88
2022-09-25T20:58:24.350Z,99.66
2022-09-25T21:00:51.930Z,99.72
2022-09-25T21:03:19.333Z,99.51
2022-09-25T21:05:46.920Z,99.54
2022-09-25T21:08:14.501Z,99.35
2022-09-25T21:10:43.199Z,98.85
2022-09-25T21:13:10.778Z,99.17
2022-09-25T21:15:38.211Z,98.53
2022-09-25T21:18:05.751Z,99.66
2022-09-25T21:20:35.837Z,99.81
2022-09-25T21:23:03.336Z,100.00
2022-09-25T21:25:30.924Z,100.00
2022-09-25T21:27:59.993Z,100.00
2022-09-25T21:30:27.412Z,99.70
2022-09-25T21:32:54.791Z,99.35
2022-09-25T21:35:22.470Z,99.07
2022-09-25T21:37:49.938Z,98.78
2022-09-25T21:40:17.401Z,99.19
2022-09-25T21:42:44.793Z,100.00
2022-09-25T21:45:13.587Z,100.00
2022-09-25T21:47:40.981Z,99.52
2022-09-25T21:50:09.333Z,99.74
2022-09-25T21:52:39.465Z,100.00
2022-09-25T21:55:08.339Z,99.95
2022-09-25T21:57:35.788Z,100.00
2022-09-25T22:00:04.078Z,100.00
2022-09-25T22:02:33.476Z,100.00
2022-09-25T22:05:03.859Z,100.00
2022-09-25T22:07:31.766Z,100.00
2022-09-25T22:09:59.457Z,100.00
2022-09-25T22:12:26.874Z,100.00
2022-09-25T22:14:54.410Z,100.00
2022-09-25T22:17:21.822Z,100.00
2022-09-25T22:19:50.615Z,100.00
2022-09-25T22:22:18.318Z,100.00
2022-09-25T22:24:45.737Z,100.00
2022-09-25T22:27:13.169Z,100.00
2022-09-25T22:29:40.791Z,100.00
2022-09-25T22:32:08.251Z,100.00
2022-09-25T22:34:35.684Z,100.00
2022-09-25T22:37:04.514Z,99.42
2022-09-25T22:39:31.950Z,98.94
2022-09-25T22:41:59.496Z,99.12
2022-09-25T22:44:26.938Z,99.17
2022-09-25T22:46:54.412Z,99.07
2022-09-25T22:49:21.818Z,98.75
2022-09-25T22:51:49.232Z,98.43
2022-09-25T22:54:18.017Z,97.72
2022-09-25T22:56:45.420Z,97.80
2022-09-25T22:59:16.035Z,97.63
2022-09-25T23:01:46.306Z,97.84
2022-09-25T23:04:15.461Z,97.66
2022-09-25T23:06:43.103Z,98.43
2022-09-25T23:09:13.347Z,98.55
2022-09-25T23:11:42.430Z,98.22
2022-09-25T23:14:14.241Z,96.93
2022-09-25T23:16:41.968Z,96.91
2022-09-25T23:19:09.574Z,96.61
2022-09-25T23:21:37.189Z,97.43
2022-09-25T23:24:06.740Z,97.56
2022-09-25T23:26:34.988Z,97.36
2022-09-25T23:29:04.307Z,96.71
2022-09-25T23:31:33.677Z,96.87
2022-09-25T23:34:01.709Z,96.08
2022-09-25T23:36:30.076Z,95.70
2022-09-25T23:38:59.950Z,95.98
2022-09-25T23:41:28.998Z,96.91
2022-09-25T23:43:56.955Z,96.97
2022-09-25T23:46:27.421Z,96.59
2022-09-25T23:48:55.467Z,96.70
2022-09-25T23:51:23.682Z,96.13
2022-09-25T23:53:51.441Z,94.96
2022-09-25T23:56:20.867Z,95.41
2022-09-25T23:58:49.116Z,95.45
